Time;durP1;ratioP1;P1;durP2;ratioP2;P2;SDS_P1;SDS_P2;PMS_P1;PMS_P2;Temp;Humidity;BMP_temperature;BMP_pressure;BME280_temperature;BME280_humidity;BME280_pressure;Samples;Min_cycle;Max_cycle;Signal;HPM_P1;HPM_P2
2022/07/27 00:02:29;;;;;;;7.90;4.60;;;;;;;;;;5055628;28;20040;-79
2022/07/27 00:05:15;;;;;;;11.75;4.97;;;;;;;;;;5062431;28;20037;-79
2022/07/27 00:08:01;;;;;;;11.32;5.03;;;;;;;;;;5062515;28;20037;-80
2022/07/27 00:10:46;;;;;;;8.68;4.72;;;;;;;;;;5062441;28;20045;-79
2022/07/27 00:13:31;;;;;;;14.73;5.22;;;;;;;;;;5055622;28;20390;-79
2022/07/27 00:16:17;;;;;;;10.50;5.15;;;;;;;;;;5056165;28;20037;-83
2022/07/27 00:19:03;;;;;;;13.40;5.03;;;;;;;;;;5056120;28;20037;-82
2022/07/27 00:21:49;;;;;;;11.30;5.15;;;;;;;;;;5055798;28;20040;-79
2022/07/27 00:24:35;;;;;;;11.73;4.97;;;;;;;;;;5055416;28;20040;-82
2022/07/27 00:27:20;;;;;;;12.57;5.82;;;;;;;;;;5062233;28;20037;-83
2022/07/27 00:30:06;;;;;;;10.98;5.55;;;;;;;;;;5054494;28;20394;-82
2022/07/27 00:32:51;;;;;;;12.75;5.50;;;;;;;;;;5055386;28;20041;-83
2022/07/27 00:35:37;;;;;;;9.45;5.07;;;;;;;;;;5055369;28;20390;-83
2022/07/27 00:38:23;;;;;;;10.07;5.45;;;;;;;;;;5055584;28;20049;-83
2022/07/27 00:41:10;;;;;;;8.02;4.72;;;;;;;;;;5055359;28;20041;-80
2022/07/27 00:43:57;;;;;;;12.20;6.07;;;;;;;;;;5054967;28;20049;-80
2022/07/27 00:46:43;;;;;;;16.58;5.57;;;;;;;;;;5055517;28;20382;-80
2022/07/27 00:49:28;;;;;;;21.67;5.78;;;;;;;;;;5055027;28;20036;-82
2022/07/27 00:52:14;;;;;;;13.88;5.38;;;;;;;;;;5055013;28;20041;-83
2022/07/27 00:55:00;;;;;;;9.52;5.63;;;;;;;;;;5055043;28;20045;-83
2022/07/27 00:57:45;;;;;;;11.27;5.70;;;;;;;;;;5054788;28;20045;-80
2022/07/27 01:00:31;;;;;;;9.70;5.50;;;;;;;;;;5061688;28;20041;-80
2022/07/27 01:03:16;;;;;;;12.25;5.40;;;;;;;;;;5054676;28;20049;-83
2022/07/27 01:06:02;;;;;;;15.93;6.03;;;;;;;;;;5054740;28;20037;-83
2022/07/27 01:08:47;;;;;;;10.70;5.78;;;;;;;;;;5054821;28;20045;-80
2022/07/27 01:11:33;;;;;;;12.75;5.57;;;;;;;;;;5061277;28;20041;-81
2022/07/27 01:14:19;;;;;;;12.32;5.93;;;;;;;;;;5054665;28;20482;-84
2022/07/27 01:17:05;;;;;;;11.30;5.80;;;;;;;;;;5054610;28;20045;-83
2022/07/27 01:19:51;;;;;;;14.50;6.18;;;;;;;;;;5055288;28;20045;-84
2022/07/27 01:22:37;;;;;;;16.77;5.80;;;;;;;;;;5054571;28;20037;-84
2022/07/27 01:25:23;;;;;;;10.40;5.88;;;;;;;;;;5054556;28;20041;-83
2022/07/27 01:28:08;;;;;;;8.38;5.28;;;;;;;;;;5056429;28;20044;-82
2022/07/27 01:30:55;;;;;;;11.93;5.80;;;;;;;;;;5078237;28;20044;-81
2022/07/27 01:33:41;;;;;;;12.35;5.45;;;;;;;;;;5057283;28;20048;-83
2022/07/27 01:36:26;;;;;;;12.25;5.70;;;;;;;;;;5055434;28;20044;-84
2022/07/27 01:39:13;;;;;;;14.45;5.72;;;;;;;;;;5061333;28;20053;-84
2022/07/27 01:41:59;;;;;;;11.07;5.97;;;;;;;;;;5039037;28;20045;-84
2022/07/27 01:44:44;;;;;;;13.07;5.70;;;;;;;;;;5054238;28;20048;-85
2022/07/27 01:47:29;;;;;;;8.95;5.72;;;;;;;;;;5039639;28;20037;-85
2022/07/27 01:50:15;;;;;;;10.20;5.63;;;;;;;;;;5039320;28;20053;-85
2022/07/27 01:53:00;;;;;;;9.90;5.78;;;;;;;;;;5045872;28;20044;-84
2022/07/27 01:55:47;;;;;;;12.40;5.50;;;;;;;;;;5054004;28;20393;-83
2022/07/27 01:58:33;;;;;;;11.18;6.50;;;;;;;;;;5054348;28;20040;-83
2022/07/27 02:01:21;;;;;;;14.80;10.15;;;;;;;;;;5045695;28;20040;-85
2022/07/27 02:04:07;;;;;;;17.95;9.80;;;;;;;;;;5053772;28;20045;-84
2022/07/27 02:06:52;;;;;;;80.82;49.75;;;;;;;;;;5054067;28;20474;-84
2022/07/27 02:09:38;;;;;;;31.55;18.40;;;;;;;;;;5060671;28;20036;-86
2022/07/27 02:12:35;;;;;;;12.02;7.25;;;;;;;;;;5039257;28;20037;-83
2022/07/27 02:15:24;;;;;;;22.13;12.48;;;;;;;;;;5045577;28;20036;-83
2022/07/27 02:18:09;;;;;;;15.23;9.15;;;;;;;;;;5054076;28;20390;-86
2022/07/27 02:20:54;;;;;;;15.18;6.15;;;;;;;;;;5053753;28;20041;-87
2022/07/27 02:23:40;;;;;;;13.65;6.28;;;;;;;;;;5045613;28;20041;-86
2022/07/27 02:26:26;;;;;;;14.68;11.20;;;;;;;;;;5053851;28;20053;-83
2022/07/27 02:29:11;;;;;;;13.40;8.18;;;;;;;;;;5053571;28;20056;-85
2022/07/27 02:31:57;;;;;;;7.95;5.95;;;;;;;;;;5053699;28;20474;-83
2022/07/27 02:34:42;;;;;;;12.38;6.10;;;;;;;;;;5053670;28;20402;-86
2022/07/27 02:37:28;;;;;;;12.50;6.40;;;;;;;;;;5038704;28;20478;-86
2022/07/27 02:40:15;;;;;;;8.98;5.60;;;;;;;;;;5045595;28;20041;-87
2022/07/27 02:43:01;;;;;;;9.88;6.15;;;;;;;;;;5030820;28;20049;-87
2022/07/27 02:45:47;;;;;;;13.77;6.30;;;;;;;;;;5034025;28;20045;-87
2022/07/27 02:53:28;;;;;;;8.80;6.20;;;;;;;;;;4964111;28;20548;-88
2022/07/27 02:56:13;;;;;;;11.57;6.32;;;;;;;;;;5031887;28;20049;-88
2022/07/27 02:58:59;;;;;;;10.05;6.13;;;;;;;;;;5056015;28;20037;-88
2022/07/27 03:01:45;;;;;;;10.38;6.43;;;;;;;;;;5056397;28;20041;-88
2022/07/27 03:04:30;;;;;;;10.60;6.13;;;;;;;;;;5064886;28;20045;-88
2022/07/27 03:07:15;;;;;;;8.60;6.15;;;;;;;;;;5054658;28;20044;-88
2022/07/27 03:10:01;;;;;;;8.68;6.10;;;;;;;;;;5057301;28;20049;-86
2022/07/27 03:12:47;;;;;;;9.05;6.15;;;;;;;;;;5057047;28;20041;-88
2022/07/27 03:15:33;;;;;;;7.78;5.80;;;;;;;;;;5057114;28;20041;-86
2022/07/27 03:18:19;;;;;;;12.93;5.97;;;;;;;;;;5057182;28;20040;-86
2022/07/27 03:21:05;;;;;;;13.05;6.05;;;;;;;;;;5049351;28;20041;-89
2022/07/27 03:23:51;;;;;;;11.88;6.18;;;;;;;;;;5050581;28;20074;-87
2022/07/27 03:26:37;;;;;;;11.15;6.38;;;;;;;;;;5035406;28;20059;-89
2022/07/27 03:29:22;;;;;;;11.32;6.65;;;;;;;;;;5057330;28;20049;-87
2022/07/27 03:32:08;;;;;;;8.52;6.32;;;;;;;;;;5049040;28;20048;-88
2022/07/27 03:34:53;;;;;;;12.50;6.63;;;;;;;;;;5048737;28;20490;-87
2022/07/27 03:37:39;;;;;;;10.48;6.70;;;;;;;;;;5056956;28;20040;-87
2022/07/27 03:40:28;;;;;;;12.00;7.00;;;;;;;;;;5057045;28;20041;-89
2022/07/27 03:43:13;;;;;;;12.18;6.63;;;;;;;;;;5041620;28;20045;-83
2022/07/27 03:45:58;;;;;;;8.23;6.00;;;;;;;;;;5067336;28;20045;-82
2022/07/27 03:48:44;;;;;;;8.52;6.50;;;;;;;;;;5078059;28;20041;-88
2022/07/27 03:51:30;;;;;;;12.80;6.72;;;;;;;;;;5070134;28;20037;-88
2022/07/27 03:54:16;;;;;;;8.98;6.70;;;;;;;;;;5041971;28;20040;-86
2022/07/27 03:57:02;;;;;;;15.32;6.80;;;;;;;;;;5056650;28;20053;-88
2022/07/27 03:59:47;;;;;;;13.02;7.03;;;;;;;;;;5056423;28;20391;-88
2022/07/27 04:02:33;;;;;;;13.52;6.32;;;;;;;;;;5048266;28;20040;-88
2022/07/27 04:05:19;;;;;;;9.73;6.22;;;;;;;;;;5047744;28;20045;-86
2022/07/27 04:08:06;;;;;;;11.43;6.30;;;;;;;;;;5051263;28;20041;-89
2022/07/27 04:10:53;;;;;;;13.18;6.45;;;;;;;;;;5039887;28;20049;-88
2022/07/27 04:13:38;;;;;;;13.23;6.75;;;;;;;;;;5049825;28;20048;-87
2022/07/27 04:16:24;;;;;;;9.70;6.43;;;;;;;;;;5059990;28;20045;-87
2022/07/27 04:19:09;;;;;;;14.60;7.32;;;;;;;;;;5057208;28;20037;-87
2022/07/27 04:21:56;;;;;;;13.25;7.22;;;;;;;;;;5055981;28;20387;-87
2022/07/27 04:24:41;;;;;;;13.98;6.97;;;;;;;;;;5061554;28;20045;-87
2022/07/27 04:27:26;;;;;;;9.20;6.75;;;;;;;;;;5055864;28;20041;-87
2022/07/27 04:30:12;;;;;;;11.73;6.80;;;;;;;;;;5047666;28;20044;-87
2022/07/27 04:32:57;;;;;;;13.15;6.22;;;;;;;;;;5026814;28;20045;-89
2022/07/27 04:35:43;;;;;;;16.02;6.72;;;;;;;;;;5040568;28;20041;-87
2022/07/27 04:38:29;;;;;;;14.85;6.75;;;;;;;;;;5055677;28;20049;-87
2022/07/27 04:41:14;;;;;;;11.32;7.13;;;;;;;;;;5033225;28;20045;-86
2022/07/27 04:44:00;;;;;;;14.27;6.93;;;;;;;;;;5043469;28;20490;-87
2022/07/27 04:46:46;;;;;;;12.48;6.93;;;;;;;;;;5055243;28;20040;-87
2022/07/27 04:49:32;;;;;;;14.52;6.68;;;;;;;;;;5055161;28;20048;-86
2022/07/27 04:52:18;;;;;;;13.73;6.93;;;;;;;;;;5058003;28;20045;-86
2022/07/27 04:55:03;;;;;;;14.48;6.38;;;;;;;;;;5044675;28;20045;-87
2022/07/27 04:57:49;;;;;;;11.63;7.35;;;;;;;;;;5051026;28;20045;-87
2022/07/27 05:00:34;;;;;;;11.85;6.75;;;;;;;;;;5054915;28;20037;-87
2022/07/27 05:03:20;;;;;;;10.07;6.78;;;;;;;;;;5055037;28;20037;-87
2022/07/27 05:06:06;;;;;;;17.23;7.47;;;;;;;;;;5057934;28;20045;-87
2022/07/27 05:08:51;;;;;;;9.10;6.80;;;;;;;;;;5047696;28;20067;-86
2022/07/27 05:11:37;;;;;;;14.05;7.40;;;;;;;;;;5054764;28;20049;-85
2022/07/27 05:14:22;;;;;;;11.98;7.13;;;;;;;;;;5046601;28;20045;-85
2022/07/27 05:17:08;;;;;;;14.02;7.55;;;;;;;;;;5054282;28;20049;-83
2022/07/27 05:19:54;;;;;;;14.05;7.28;;;;;;;;;;5054557;28;20394;-79
2022/07/27 05:22:39;;;;;;;10.02;7.03;;;;;;;;;;5054953;28;20040;-84
2022/07/27 05:25:25;;;;;;;11.63;6.88;;;;;;;;;;5054300;28;20049;-79
2022/07/27 05:28:12;;;;;;;13.23;7.50;;;;;;;;;;5055306;28;20048;-80
2022/07/27 05:30:58;;;;;;;10.85;6.47;;;;;;;;;;5061408;28;20044;-81
2022/07/27 05:33:44;;;;;;;10.50;6.22;;;;;;;;;;5054678;28;20053;-83
2022/07/27 05:36:30;;;;;;;10.63;6.40;;;;;;;;;;5061302;28;20482;-82
2022/07/27 05:39:14;;;;;;;7.75;6.45;;;;;;;;;;5061087;28;20394;-82
2022/07/27 05:41:59;;;;;;;10.90;6.38;;;;;;;;;;5054511;28;20041;-82
2022/07/27 05:44:44;;;;;;;7.28;6.30;;;;;;;;;;5053642;28;20328;-81
2022/07/27 05:47:30;;;;;;;7.80;5.43;;;;;;;;;;5053191;28;20478;-82
2022/07/27 05:50:16;;;;;;;9.63;6.22;;;;;;;;;;5059584;28;20041;-82
2022/07/27 05:53:02;;;;;;;9.55;6.43;;;;;;;;;;5038892;28;20057;-82
2022/07/27 05:55:48;;;;;;;7.43;5.40;;;;;;;;;;5053401;28;20041;-77
2022/07/27 05:58:34;;;;;;;9.35;5.47;;;;;;;;;;5054767;28;20040;-79
2022/07/27 06:01:19;;;;;;;9.40;6.40;;;;;;;;;;5054185;28;20041;-79
2022/07/27 06:04:05;;;;;;;9.23;6.85;;;;;;;;;;5076186;28;20052;-79
2022/07/27 06:09:54;;;;;;;8.68;6.13;;;;;;;;;;5053579;28;20049;-79
2022/07/27 06:12:42;;;;;;;12.32;6.65;;;;;;;;;;5052919;28;20053;-79
2022/07/27 06:15:27;;;;;;;11.10;6.85;;;;;;;;;;5053266;28;20056;-84
2022/07/27 06:18:16;;;;;;;11.70;8.25;;;;;;;;;;5059121;28;20048;-80
2022/07/27 06:21:03;;;;;;;9.80;8.23;;;;;;;;;;5053443;28;20049;-79
2022/07/27 06:23:49;;;;;;;9.82;7.68;;;;;;;;;;5053297;28;20049;-82
2022/07/27 06:26:34;;;;;;;14.20;8.73;;;;;;;;;;5044605;28;20041;-79
2022/07/27 06:29:19;;;;;;;12.02;9.27;;;;;;;;;;5057857;28;20052;-81
2022/07/27 06:32:05;;;;;;;11.02;8.73;;;;;;;;;;5056760;28;20285;-80
2022/07/27 06:34:50;;;;;;;11.82;8.82;;;;;;;;;;5063655;28;20049;-81
2022/07/27 06:37:36;;;;;;;12.48;9.15;;;;;;;;;;5057191;28;20144;-81
2022/07/27 06:40:22;;;;;;;12.80;9.27;;;;;;;;;;5057282;28;20057;-83
2022/07/27 06:43:07;;;;;;;13.00;8.98;;;;;;;;;;5057161;28;20044;-81
2022/07/27 06:45:53;;;;;;;11.07;9.80;;;;;;;;;;5057682;28;20037;-81
2022/07/27 06:48:40;;;;;;;13.50;10.50;;;;;;;;;;5057346;28;20045;-81
2022/07/27 06:51:26;;;;;;;11.70;10.02;;;;;;;;;;5057595;28;20041;-80
2022/07/27 06:54:11;;;;;;;11.63;9.52;;;;;;;;;;5056723;28;20409;-80
2022/07/27 06:56:57;;;;;;;14.00;9.10;;;;;;;;;;5064066;28;20386;-79
2022/07/27 06:59:43;;;;;;;16.23;9.23;;;;;;;;;;5064962;28;20041;-81
2022/07/27 07:02:29;;;;;;;10.45;8.80;;;;;;;;;;5056261;28;20481;-79
2022/07/27 07:05:14;;;;;;;13.02;9.25;;;;;;;;;;5064455;28;20048;-81
2022/07/27 07:08:00;;;;;;;10.43;8.90;;;;;;;;;;5042361;28;20045;-80
2022/07/27 07:10:46;;;;;;;10.73;8.65;;;;;;;;;;5056283;28;20389;-80
2022/07/27 07:13:31;;;;;;;13.68;9.70;;;;;;;;;;5057126;28;20057;-80
2022/07/27 07:16:17;;;;;;;11.55;10.35;;;;;;;;;;5056115;28;20490;-81
2022/07/27 07:19:04;;;;;;;14.25;11.05;;;;;;;;;;5056166;28;20049;-79
2022/07/27 07:21:50;;;;;;;11.88;9.73;;;;;;;;;;5062487;28;20406;-80
2022/07/27 07:24:36;;;;;;;11.00;9.30;;;;;;;;;;5055703;28;20413;-81
2022/07/27 07:27:22;;;;;;;94.57;69.40;;;;;;;;;;5056207;28;20049;-80
2022/07/27 07:30:10;;;;;;;160.77;133.15;;;;;;;;;;5055380;28;20037;-82
2022/07/27 07:32:55;;;;;;;26.20;22.55;;;;;;;;;;5062653;28;20040;-80
2022/07/27 07:35:41;;;;;;;238.52;201.50;;;;;;;;;;5055766;28;20045;-82
2022/07/27 07:38:26;;;;;;;18.45;15.85;;;;;;;;;;5062197;28;20053;-80
2022/07/27 07:41:11;;;;;;;14.45;12.38;;;;;;;;;;5056474;28;20094;-80
2022/07/27 07:43:57;;;;;;;35.22;27.73;;;;;;;;;;5059255;28;20044;-78
2022/07/27 07:46:42;;;;;;;16.92;11.75;;;;;;;;;;5055854;28;20044;-79
2022/07/27 07:49:28;;;;;;;14.65;10.15;;;;;;;;;;5056386;28;20045;-79
2022/07/27 07:52:14;;;;;;;15.48;10.00;;;;;;;;;;5061941;28;20049;-79
2022/07/27 07:54:59;;;;;;;17.08;10.52;;;;;;;;;;5062130;28;20045;-80
2022/07/27 07:57:45;;;;;;;13.10;10.68;;;;;;;;;;5054990;28;20049;-80
2022/07/27 08:00:31;;;;;;;18.98;9.55;;;;;;;;;;5060493;28;20053;-82
2022/07/27 08:03:17;;;;;;;11.10;9.10;;;;;;;;;;5062746;28;20089;-79
2022/07/27 08:06:03;;;;;;;13.90;10.43;;;;;;;;;;5062056;28;20040;-81
2022/07/27 08:08:48;;;;;;;14.55;10.95;;;;;;;;;;5040796;28;20045;-80
2022/07/27 08:11:34;;;;;;;12.70;10.32;;;;;;;;;;5062127;28;20040;-81
2022/07/27 08:14:19;;;;;;;16.02;10.60;;;;;;;;;;5055544;28;20041;-80
2022/07/27 08:17:05;;;;;;;12.07;10.38;;;;;;;;;;5055264;28;20045;-80
2022/07/27 08:19:50;;;;;;;12.25;9.57;;;;;;;;;;5056565;28;20422;-79
2022/07/27 08:22:36;;;;;;;13.90;10.20;;;;;;;;;;5077005;28;20053;-78
2022/07/27 08:25:22;;;;;;;16.38;10.75;;;;;;;;;;5055237;28;20053;-80
2022/07/27 08:28:07;;;;;;;11.82;9.93;;;;;;;;;;5061720;28;20048;-81
2022/07/27 08:30:53;;;;;;;12.13;10.90;;;;;;;;;;5055291;28;20045;-81
2022/07/27 08:33:38;;;;;;;11.48;10.27;;;;;;;;;;5061374;28;20466;-80
2022/07/27 08:36:24;;;;;;;10.65;8.98;;;;;;;;;;5055510;28;20053;-81
2022/07/27 08:39:09;;;;;;;13.68;8.52;;;;;;;;;;5062101;28;20040;-80
2022/07/27 08:41:59;;;;;;;13.10;9.45;;;;;;;;;;5054428;28;20045;-80
2022/07/27 08:44:48;;;;;;;14.65;10.50;;;;;;;;;;5054661;28;20045;-80
2022/07/27 08:47:34;;;;;;;11.23;9.90;;;;;;;;;;5061489;28;20045;-80
2022/07/27 08:50:24;;;;;;;12.35;10.63;;;;;;;;;;5060781;28;20393;-81
2022/07/27 08:53:11;;;;;;;11.93;10.63;;;;;;;;;;5055026;28;20053;-81
2022/07/27 08:55:57;;;;;;;11.48;9.65;;;;;;;;;;5055143;28;20398;-81
2022/07/27 08:58:45;;;;;;;10.63;9.38;;;;;;;;;;5061203;28;20041;-80
2022/07/27 09:01:31;;;;;;;11.57;9.05;;;;;;;;;;5054586;28;20416;-81
2022/07/27 09:04:17;;;;;;;12.73;8.27;;;;;;;;;;5054753;28;20398;-81
2022/07/27 09:07:02;;;;;;;9.75;8.38;;;;;;;;;;5054841;28;20036;-81
2022/07/27 09:09:48;;;;;;;11.30;9.95;;;;;;;;;;5054493;28;20406;-80
2022/07/27 09:12:34;;;;;;;11.70;9.82;;;;;;;;;;5061303;28;20044;-80
2022/07/27 09:15:19;;;;;;;13.77;10.35;;;;;;;;;;5060927;28;20405;-80
2022/07/27 09:18:22;;;;;;;12.82;10.20;;;;;;;;;;5054459;28;20040;-80
2022/07/27 09:21:15;;;;;;;11.47;10.30;;;;;;;;;;5053659;28;20053;-80
2022/07/27 09:24:10;;;;;;;11.35;9.77;;;;;;;;;;5060252;28;20052;-82
2022/07/27 09:27:04;;;;;;;12.95;9.95;;;;;;;;;;5060985;28;20041;-81
2022/07/27 09:30:01;;;;;;;10.50;9.23;;;;;;;;;;5061686;28;20041;-81
2022/07/27 09:32:54;;;;;;;12.00;10.70;;;;;;;;;;5053766;28;20045;-81
2022/07/27 09:35:40;;;;;;;11.00;9.70;;;;;;;;;;5053807;28;20052;-81
2022/07/27 09:38:25;;;;;;;11.38;9.82;;;;;;;;;;5054046;28;20041;-80
2022/07/27 09:41:10;;;;;;;10.98;9.65;;;;;;;;;;5045658;28;20045;-81
2022/07/27 09:43:57;;;;;;;11.13;9.45;;;;;;;;;;5054115;28;20140;-80
2022/07/27 09:46:45;;;;;;;10.27;9.27;;;;;;;;;;5054056;28;20049;-81
2022/07/27 09:49:33;;;;;;;10.70;9.60;;;;;;;;;;5060657;28;20045;-80
2022/07/27 09:52:29;;;;;;;10.05;8.98;;;;;;;;;;5054055;28;20048;-80
2022/07/27 09:55:19;;;;;;;11.82;8.50;;;;;;;;;;5053868;28;20045;-80
2022/07/27 09:58:04;;;;;;;10.23;8.82;;;;;;;;;;5055405;28;20040;-81
2022/07/27 10:00:56;;;;;;;12.50;8.50;;;;;;;;;;5053889;28;20044;-81
2022/07/27 10:03:44;;;;;;;11.68;8.75;;;;;;;;;;5060827;28;20378;-82
2022/07/27 10:06:30;;;;;;;10.68;8.80;;;;;;;;;;5038852;28;20049;-81
2022/07/27 10:09:18;;;;;;;14.93;9.80;;;;;;;;;;5053405;28;20044;-81
2022/07/27 10:12:04;;;;;;;10.45;8.95;;;;;;;;;;5059203;28;20052;-81
2022/07/27 10:14:49;;;;;;;15.18;9.40;;;;;;;;;;5053403;28;20041;-80
2022/07/27 10:17:36;;;;;;;18.85;10.43;;;;;;;;;;5053448;28;20041;-81
2022/07/27 10:20:21;;;;;;;10.20;8.63;;;;;;;;;;5060282;28;20445;-83
2022/07/27 10:23:24;;;;;;;12.73;8.90;;;;;;;;;;5053866;28;20426;-81
2022/07/27 10:26:16;;;;;;;10.15;9.00;;;;;;;;;;5039074;28;20040;-82
2022/07/27 10:29:13;;;;;;;14.25;9.80;;;;;;;;;;5054640;28;20044;-81
2022/07/27 10:31:59;;;;;;;12.63;10.15;;;;;;;;;;5054299;28;20037;-80
2022/07/27 10:34:45;;;;;;;13.20;10.10;;;;;;;;;;5053741;28;20049;-82
2022/07/27 10:37:33;;;;;;;11.27;10.15;;;;;;;;;;5060327;28;20044;-80
2022/07/27 10:40:33;;;;;;;11.52;9.77;;;;;;;;;;5070045;28;20041;-80
2022/07/27 10:43:21;;;;;;;11.55;10.05;;;;;;;;;;5049802;28;20049;-77
2022/07/27 10:46:05;;;;;;;18.55;10.00;;;;;;;;;;5059765;28;20041;-79
2022/07/27 10:48:51;;;;;;;12.77;10.13;;;;;;;;;;5053771;28;20049;-80
2022/07/27 10:51:37;;;;;;;11.88;9.63;;;;;;;;;;5058899;28;20049;-79
2022/07/27 10:54:35;;;;;;;12.93;9.77;;;;;;;;;;5053263;28;20049;-79
2022/07/27 10:57:26;;;;;;;12.25;9.77;;;;;;;;;;5059455;28;20045;-79
2022/07/27 11:00:12;;;;;;;12.50;9.77;;;;;;;;;;5052918;28;20053;-79
2022/07/27 11:02:58;;;;;;;11.65;9.52;;;;;;;;;;5053304;28;20037;-79
2022/07/27 11:05:56;;;;;;;12.15;9.90;;;;;;;;;;5058662;28;20053;-79
2022/07/27 11:08:44;;;;;;;12.45;9.38;;;;;;;;;;5053555;28;20486;-78
2022/07/27 11:11:29;;;;;;;11.07;9.98;;;;;;;;;;5059863;28;20041;-79
2022/07/27 11:14:14;;;;;;;12.25;10.35;;;;;;;;;;5055492;28;20049;-78
2022/07/27 11:17:04;;;;;;;15.02;9.98;;;;;;;;;;5057222;28;20047;-79
2022/07/27 11:19:54;;;;;;;12.38;9.70;;;;;;;;;;5057397;28;20045;-78
2022/07/27 11:22:41;;;;;;;11.32;9.10;;;;;;;;;;5056431;28;20041;-78
2022/07/27 11:25:25;;;;;;;12.15;9.80;;;;;;;;;;5056393;28;20041;-78
2022/07/27 11:28:10;;;;;;;11.27;10.05;;;;;;;;;;5056667;28;20041;-79
2022/07/27 11:30:56;;;;;;;11.20;10.10;;;;;;;;;;5056225;28;20045;-78
2022/07/27 11:33:49;;;;;;;10.88;9.75;;;;;;;;;;5055676;28;20074;-79
2022/07/27 11:36:43;;;;;;;12.38;9.88;;;;;;;;;;5056275;28;20049;-79
2022/07/27 11:39:33;;;;;;;11.35;9.68;;;;;;;;;;5056223;28;20071;-80
2022/07/27 11:42:18;;;;;;;10.68;9.52;;;;;;;;;;5056334;28;20390;-80
2022/07/27 11:45:04;;;;;;;10.48;9.15;;;;;;;;;;5056737;28;20045;-80
2022/07/27 11:47:56;;;;;;;12.57;9.60;;;;;;;;;;5055957;28;20045;-80
2022/07/27 11:50:57;;;;;;;9.80;8.80;;;;;;;;;;5047765;28;20601;-80
2022/07/27 11:53:43;;;;;;;9.93;8.93;;;;;;;;;;5055678;28;20057;-80
2022/07/27 11:56:31;;;;;;;11.50;9.10;;;;;;;;;;5056095;28;20048;-80
2022/07/27 11:59:27;;;;;;;11.70;8.20;;;;;;;;;;5055945;28;20048;-79
2022/07/27 12:02:16;;;;;;;9.85;8.20;;;;;;;;;;5056073;28;20056;-79
2022/07/27 12:05:08;;;;;;;12.48;8.68;;;;;;;;;;5055443;28;20041;-82
2022/07/27 12:07:54;;;;;;;12.63;9.00;;;;;;;;;;5061875;28;20045;-80
2022/07/27 12:10:56;;;;;;;12.05;8.77;;;;;;;;;;5055372;28;20052;-80
2022/07/27 12:13:41;;;;;;;11.13;9.13;;;;;;;;;;5055150;28;20033;-79
2022/07/27 12:16:27;;;;;;;13.40;8.65;;;;;;;;;;5062679;28;20045;-80
2022/07/27 12:19:21;;;;;;;9.38;8.38;;;;;;;;;;5055715;28;20052;-79
2022/07/27 12:22:07;;;;;;;11.23;9.00;;;;;;;;;;5055926;28;20490;-79
2022/07/27 12:24:53;;;;;;;9.98;8.93;;;;;;;;;;5054173;28;20306;-79
2022/07/27 12:27:38;;;;;;;12.02;8.90;;;;;;;;;;5055511;28;20402;-81
2022/07/27 12:30:47;;;;;;;10.23;9.15;;;;;;;;;;5055284;28;20037;-81
2022/07/27 12:33:38;;;;;;;10.90;9.05;;;;;;;;;;5056151;28;20413;-80
2022/07/27 12:36:26;;;;;;;13.40;8.32;;;;;;;;;;5054755;28;20057;-80
2022/07/27 12:39:40;;;;;;;11.57;8.85;;;;;;;;;;5061966;28;20045;-80
2022/07/27 12:42:34;;;;;;;10.25;7.65;;;;;;;;;;5062086;28;20366;-80
2022/07/27 12:45:20;;;;;;;9.70;8.00;;;;;;;;;;5039877;28;20048;-80
2022/07/27 12:48:12;;;;;;;9.32;8.23;;;;;;;;;;5054924;28;20053;-80
2022/07/27 12:51:02;;;;;;;8.75;7.85;;;;;;;;;;5055083;28;20049;-80
2022/07/27 12:53:47;;;;;;;13.32;8.48;;;;;;;;;;5055153;28;20041;-80
2022/07/27 12:56:34;;;;;;;12.23;7.57;;;;;;;;;;5055043;28;20041;-81
2022/07/27 12:59:22;;;;;;;12.75;8.07;;;;;;;;;;5075792;28;20057;-79
2022/07/27 13:02:07;;;;;;;9.02;8.10;;;;;;;;;;5058261;28;20044;-80
2022/07/27 13:04:53;;;;;;;11.65;8.35;;;;;;;;;;5054629;28;20052;-79
2022/07/27 13:07:42;;;;;;;12.30;8.27;;;;;;;;;;5054808;28;20041;-80
2022/07/27 13:10:27;;;;;;;15.68;9.05;;;;;;;;;;5061352;28;20041;-79
2022/07/27 13:13:13;;;;;;;10.55;8.25;;;;;;;;;;5054823;28;20056;-79
2022/07/27 13:15:58;;;;;;;8.90;8.00;;;;;;;;;;5054695;28;20041;-79
2022/07/27 13:18:43;;;;;;;9.05;8.15;;;;;;;;;;5054389;28;20037;-80
2022/07/27 13:21:29;;;;;;;9.52;8.40;;;;;;;;;;5054056;28;20053;-79
2022/07/27 13:24:15;;;;;;;12.45;9.02;;;;;;;;;;5054239;28;20049;-79
2022/07/27 13:27:00;;;;;;;13.20;8.45;;;;;;;;;;5054705;28;20041;-80
2022/07/27 13:29:46;;;;;;;9.73;8.73;;;;;;;;;;5054283;28;20041;-79
2022/07/27 13:32:31;;;;;;;9.90;8.30;;;;;;;;;;5054181;28;20049;-79
2022/07/27 13:35:17;;;;;;;8.50;7.63;;;;;;;;;;5060617;28;20057;-80
2022/07/27 13:38:03;;;;;;;8.98;8.00;;;;;;;;;;5053982;28;20401;-80
2022/07/27 13:40:48;;;;;;;10.55;9.05;;;;;;;;;;5053686;28;20052;-80
2022/07/27 13:43:34;;;;;;;10.20;8.63;;;;;;;;;;5053864;28;20398;-80
2022/07/27 13:46:19;;;;;;;11.65;8.57;;;;;;;;;;5053321;28;20049;-81
2022/07/27 13:49:05;;;;;;;9.50;8.50;;;;;;;;;;5053824;28;20057;-80
2022/07/27 13:51:50;;;;;;;11.75;8.48;;;;;;;;;;5053906;28;20394;-80
2022/07/27 13:54:36;;;;;;;8.90;8.00;;;;;;;;;;5053981;28;20049;-79
2022/07/27 13:57:22;;;;;;;11.55;8.43;;;;;;;;;;5054046;28;20049;-79
2022/07/27 14:00:08;;;;;;;9.82;8.43;;;;;;;;;;5053028;28;20421;-80
2022/07/27 14:02:53;;;;;;;9.57;7.95;;;;;;;;;;5053721;28;20049;-78
2022/07/27 14:05:39;;;;;;;8.73;7.90;;;;;;;;;;5053426;28;20454;-79
2022/07/27 14:08:25;;;;;;;9.73;8.70;;;;;;;;;;5053591;28;20045;-79
2022/07/27 14:11:11;;;;;;;10.23;8.40;;;;;;;;;;5053306;28;20041;-79
2022/07/27 14:13:57;;;;;;;12.57;8.63;;;;;;;;;;5053852;28;20057;-80
2022/07/27 14:16:42;;;;;;;8.20;7.40;;;;;;;;;;5053576;28;20037;-79
2022/07/27 14:19:29;;;;;;;9.38;8.38;;;;;;;;;;5053468;28;20041;-80
2022/07/27 14:22:14;;;;;;;9.60;8.48;;;;;;;;;;5053681;28;20049;-79
2022/07/27 14:24:59;;;;;;;9.75;8.60;;;;;;;;;;5053279;28;20081;-79
2022/07/27 14:27:46;;;;;;;13.70;8.63;;;;;;;;;;5052889;28;20489;-78
2022/07/27 14:30:32;;;;;;;10.52;8.10;;;;;;;;;;5053648;28;20044;-79
2022/07/27 14:33:17;;;;;;;9.77;8.32;;;;;;;;;;5053416;28;20041;-78
2022/07/27 14:36:04;;;;;;;11.30;8.50;;;;;;;;;;5052751;28;20048;-79
2022/07/27 14:38:52;;;;;;;9.50;8.50;;;;;;;;;;5052611;28;20393;-79
2022/07/27 14:41:40;;;;;;;8.55;7.57;;;;;;;;;;5053550;28;20478;-78
2022/07/27 14:44:26;;;;;;;10.65;8.60;;;;;;;;;;5052757;28;20041;-78
2022/07/27 14:47:11;;;;;;;11.43;8.75;;;;;;;;;;5053158;28;20049;-79
2022/07/27 14:49:57;;;;;;;18.30;9.35;;;;;;;;;;5056952;28;20049;-78
2022/07/27 14:52:42;;;;;;;14.10;9.60;;;;;;;;;;5064084;28;20041;-79
2022/07/27 14:55:28;;;;;;;14.55;9.68;;;;;;;;;;5057215;28;20045;-78
2022/07/27 14:58:14;;;;;;;11.00;9.10;;;;;;;;;;5063957;28;20045;-79
2022/07/27 15:00:59;;;;;;;10.00;9.05;;;;;;;;;;5063572;28;20041;-79
2022/07/27 15:03:45;;;;;;;14.45;10.30;;;;;;;;;;5056715;28;20478;-79
2022/07/27 15:06:31;;;;;;;15.90;10.13;;;;;;;;;;5057933;28;20044;-79
2022/07/27 15:09:16;;;;;;;16.38;10.00;;;;;;;;;;5063444;28;20045;-78
2022/07/27 15:12:02;;;;;;;12.88;9.65;;;;;;;;;;5063701;28;20049;-80
2022/07/27 15:14:48;;;;;;;16.17;10.38;;;;;;;;;;5065762;28;20048;-81
2022/07/27 15:17:35;;;;;;;16.80;11.13;;;;;;;;;;5062143;28;20045;-79
2022/07/27 15:20:21;;;;;;;18.95;11.70;;;;;;;;;;5058128;28;20486;-83
2022/07/27 15:23:06;;;;;;;16.20;11.57;;;;;;;;;;5063185;28;20498;-83
2022/07/27 15:25:52;;;;;;;15.43;10.25;;;;;;;;;;5057378;28;20045;-83
2022/07/27 15:28:39;;;;;;;15.20;10.48;;;;;;;;;;5056585;28;20040;-84
2022/07/27 15:31:26;;;;;;;17.90;10.23;;;;;;;;;;5056582;28;20041;-83
2022/07/27 15:34:12;;;;;;;17.95;10.65;;;;;;;;;;5062928;28;20410;-84
2022/07/27 15:36:57;;;;;;;21.70;11.20;;;;;;;;;;5056290;28;20041;-83
2022/07/27 15:39:43;;;;;;;17.83;12.35;;;;;;;;;;5055443;28;20498;-82
2022/07/27 15:42:29;;;;;;;22.05;14.13;;;;;;;;;;5055474;28;20036;-83
2022/07/27 15:45:14;;;;;;;21.08;14.30;;;;;;;;;;5056263;28;20049;-82
2022/07/27 15:48:00;;;;;;;22.27;14.30;;;;;;;;;;5055089;28;20045;-83
2022/07/27 15:50:49;;;;;;;20.08;14.23;;;;;;;;;;5062056;28;20414;-82
2022/07/27 15:53:34;;;;;;;17.67;13.10;;;;;;;;;;5054770;28;20057;-83
2022/07/27 15:56:20;;;;;;;21.17;13.90;;;;;;;;;;5061679;28;20045;-82
2022/07/27 15:59:05;;;;;;;15.45;12.90;;;;;;;;;;5058773;28;20049;-81
2022/07/27 16:01:51;;;;;;;18.85;14.35;;;;;;;;;;5055142;28;20048;-84
2022/07/27 16:04:37;;;;;;;18.65;12.45;;;;;;;;;;5055122;28;20394;-82
2022/07/27 16:07:23;;;;;;;18.45;12.45;;;;;;;;;;5055648;28;20044;-83
2022/07/27 16:10:09;;;;;;;15.88;11.95;;;;;;;;;;5048050;28;20044;-79
2022/07/27 16:12:55;;;;;;;14.57;11.85;;;;;;;;;;5056405;28;20045;-80
2022/07/27 16:18:45;;;;;;;15.70;11.55;;;;;;;;;;5055286;28;20409;-79
2022/07/27 16:21:31;;;;;;;17.40;10.98;;;;;;;;;;5055423;28;20053;-80
2022/07/27 16:24:17;;;;;;;14.10;10.27;;;;;;;;;;5055795;28;20040;-80
2022/07/27 16:27:03;;;;;;;16.40;8.82;;;;;;;;;;5055951;28;20041;-79
2022/07/27 16:29:49;;;;;;;10.38;8.35;;;;;;;;;;5055568;28;20037;-78
2022/07/27 16:32:34;;;;;;;8.93;7.88;;;;;;;;;;5057901;28;20045;-78
2022/07/27 16:35:24;;;;;;;11.80;9.30;;;;;;;;;;5067037;28;20045;-79